Terminal Aerodrome Forecast
Issued by NWS

Home | Current Version | Previous Version | Text Only | Print | Product List | Glossary On
Versions: 1 2 3 4 5 6 7 8 9 10 11 12 13 14 15 16
000
FTUS45 KVEF 232320
TAFVGT
TAF
KVGT 232320Z 2400/2424 27010KT P6SM BKN090 BKN120
     FM240400 24009KT P6SM BKN090
     FM240900 36006KT P6SM BKN090
     FM241500 14006KT P6SM BKN090=

USA.gov is the U.S. government's official web portal to all federal, state and local government web resources and services.